createdAt,value
2023-02-28T00:00:37.718Z,55.53
2023-02-28T00:03:05.101Z,55.79
2023-02-28T00:05:32.076Z,55.55
2023-02-28T00:07:58.769Z,55.29
2023-02-28T00:10:27.643Z,55.31
2023-02-28T00:12:59.784Z,55.61
2023-02-28T00:15:27.247Z,55.60
2023-02-28T00:17:54.278Z,55.57
2023-02-28T00:20:21.447Z,55.57
2023-02-28T00:22:49.809Z,55.58
2023-02-28T00:25:23.926Z,55.69
2023-02-28T00:27:51.168Z,55.57
2023-02-28T00:30:22.331Z,55.36
2023-02-28T00:32:50.322Z,55.32
2023-02-28T00:35:17.269Z,55.63
2023-02-28T00:37:44.084Z,55.77
2023-02-28T00:40:12.412Z,55.77
2023-02-28T00:42:40.025Z,55.76
2023-02-28T00:45:08.839Z,55.76
2023-02-28T00:47:38.315Z,55.78
2023-02-28T00:50:06.296Z,55.38
2023-02-28T00:52:33.472Z,55.26
2023-02-28T00:55:00.437Z,54.94
2023-02-28T00:57:27.644Z,54.77
2023-02-28T00:59:57.333Z,55.06
2023-02-28T01:02:24.181Z,55.19
2023-02-28T01:04:53.207Z,54.97
2023-02-28T01:07:20.018Z,55.25
2023-02-28T01:09:47.268Z,55.64
2023-02-28T01:12:15.402Z,55.61
2023-02-28T01:14:43.133Z,55.83
2023-02-28T01:17:09.954Z,56.19
2023-02-28T01:19:39.662Z,56.14
2023-02-28T01:22:06.808Z,55.57
2023-02-28T01:24:36.215Z,55.48
2023-02-28T01:27:03.201Z,55.71
2023-02-28T01:29:30.307Z,55.43
2023-02-28T01:31:57.704Z,55.35
2023-02-28T01:34:24.640Z,55.66
2023-02-28T01:36:51.761Z,55.46
2023-02-28T01:39:20.039Z,55.33
2023-02-28T01:41:46.912Z,55.41
2023-02-28T01:44:51.797Z,55.65
2023-02-28T01:47:18.533Z,55.85
2023-02-28T01:49:45.394Z,55.93
2023-02-28T01:52:18.474Z,56.26
2023-02-28T01:54:52.719Z,55.85
2023-02-28T01:57:23.341Z,55.60
2023-02-28T01:59:52.935Z,55.51
2023-02-28T02:02:23.014Z,55.30
2023-02-28T02:05:03.742Z,55.47
2023-02-28T02:07:33.305Z,55.56
2023-02-28T02:10:02.529Z,55.54
2023-02-28T02:12:50.968Z,55.54
2023-02-28T02:15:34.926Z,55.40
2023-02-28T02:18:08.535Z,55.71
2023-02-28T02:21:12.028Z,55.70
2023-02-28T02:23:45.134Z,55.66
2023-02-28T02:26:35.718Z,55.69
2023-02-28T02:29:54.301Z,55.57
2023-02-28T02:32:44.262Z,55.58
2023-02-28T02:35:17.707Z,55.70
2023-02-28T02:38:13.897Z,55.48
2023-02-28T02:41:04.601Z,55.47
2023-02-28T02:43:35.326Z,55.66
2023-02-28T02:46:06.060Z,55.70
2023-02-28T02:48:34.540Z,55.59
2023-02-28T02:51:12.341Z,55.70
2023-02-28T02:53:53.242Z,55.56
2023-02-28T02:56:21.695Z,55.32
2023-02-28T02:58:49.859Z,55.51
2023-02-28T03:01:28.346Z,55.65
2023-02-28T03:04:03.622Z,55.22
2023-02-28T03:06:30.686Z,55.53
2023-02-28T03:08:57.622Z,55.56
2023-02-28T03:11:24.462Z,55.39
2023-02-28T03:14:20.081Z,55.32
2023-02-28T03:17:23.720Z,54.65
2023-02-28T03:20:03.812Z,54.80
2023-02-28T03:22:39.810Z,55.01
2023-02-28T03:25:21.184Z,55.01
2023-02-28T03:28:14.346Z,54.73
2023-02-28T03:31:29.124Z,54.62
2023-02-28T03:34:06.440Z,55.05
2023-02-28T03:36:44.303Z,55.19
2023-02-28T03:39:22.618Z,55.05
2023-02-28T03:42:01.183Z,55.22
2023-02-28T03:44:34.969Z,55.68
2023-02-28T03:47:05.471Z,55.91
2023-02-28T03:49:54.628Z,55.58
2023-02-28T03:52:22.789Z,55.64
2023-02-28T03:54:52.642Z,55.88
2023-02-28T03:57:57.036Z,55.98
2023-02-28T04:00:33.617Z,55.75
2023-02-28T04:03:00.359Z,55.15
2023-02-28T04:05:32.860Z,55.35
2023-02-28T04:08:07.150Z,55.35
2023-02-28T04:10:33.845Z,55.31
2023-02-28T04:13:00.693Z,55.07
2023-02-28T04:15:28.216Z,55.07
2023-02-28T04:17:55.143Z,55.10
2023-02-28T04:20:22.080Z,55.21
2023-02-28T04:22:48.938Z,55.17
2023-02-28T04:25:15.807Z,55.22
2023-02-28T04:27:44.967Z,55.36
2023-02-28T04:30:13.164Z,55.34
2023-02-28T04:32:39.980Z,55.15
2023-02-28T04:35:07.841Z,54.85
2023-02-28T04:37:35.363Z,54.74
2023-02-28T04:40:02.809Z,54.83
2023-02-28T04:42:36.025Z,54.70
2023-02-28T04:45:03.825Z,54.72
2023-02-28T04:47:30.746Z,54.85
2023-02-28T04:49:57.640Z,54.77
2023-02-28T05:04:14.916Z,54.47
2023-02-28T05:06:43.089Z,53.31
2023-02-28T05:09:11.848Z,53.24
2023-02-28T05:11:40.046Z,53.58
2023-02-28T05:14:12.217Z,53.72
2023-02-28T05:16:39.170Z,53.62
2023-02-28T05:19:06.390Z,53.81
2023-02-28T05:21:34.911Z,53.97
2023-02-28T05:24:03.609Z,54.26
2023-02-28T05:26:30.869Z,54.42
2023-02-28T05:28:58.088Z,54.23
2023-02-28T05:31:25.505Z,54.18
2023-02-28T05:33:52.490Z,54.05
2023-02-28T05:36:21.080Z,54.21
2023-02-28T05:38:48.905Z,54.19
2023-02-28T05:41:20.532Z,53.83
2023-02-28T05:43:48.332Z,53.68
2023-02-28T05:46:15.531Z,53.59
2023-02-28T05:48:42.793Z,53.60
2023-02-28T05:51:09.841Z,53.76
2023-02-28T05:53:36.596Z,53.97
2023-02-28T05:56:04.174Z,53.96
2023-02-28T05:58:35.158Z,53.81
2023-02-28T06:01:20.536Z,53.62
2023-02-28T06:03:47.804Z,53.25
2023-02-28T06:06:14.539Z,53.17
2023-02-28T06:08:43.934Z,53.11
2023-02-28T06:11:14.062Z,52.67
2023-02-28T06:13:41.279Z,52.52
2023-02-28T06:16:09.794Z,52.65
2023-02-28T06:18:37.860Z,52.88
2023-02-28T06:21:04.896Z,53.01
2023-02-28T06:23:32.750Z,52.87
2023-02-28T06:25:59.620Z,52.86
2023-02-28T06:28:27.281Z,52.86
2023-02-28T06:30:54.938Z,52.79
2023-02-28T06:33:21.791Z,52.79
2023-02-28T06:35:52.042Z,52.75
2023-02-28T06:38:19.060Z,52.81
2023-02-28T06:40:55.744Z,52.89
2023-02-28T06:43:23.532Z,52.36
2023-02-28T06:45:50.527Z,52.31
2023-02-28T06:48:21.998Z,52.20
2023-02-28T06:50:49.682Z,52.14
2023-02-28T06:53:17.014Z,52.10
2023-02-28T06:55:43.960Z,52.52
2023-02-28T06:58:19.200Z,52.41
2023-02-28T07:00:46.456Z,52.41
2023-02-28T07:03:15.857Z,52.06
2023-02-28T07:05:43.002Z,52.07
2023-02-28T07:08:12.285Z,52.03
2023-02-28T07:10:39.145Z,52.44
2023-02-28T07:13:06.300Z,52.85
2023-02-28T07:15:35.533Z,52.88
2023-02-28T07:18:03.777Z,52.69
2023-02-28T07:20:30.823Z,52.63
2023-02-28T07:22:57.495Z,52.96
2023-02-28T07:25:27.336Z,53.10
2023-02-28T07:27:55.645Z,53.31
2023-02-28T07:30:22.413Z,53.48
2023-02-28T07:32:50.358Z,52.76
2023-02-28T07:35:17.519Z,52.99
2023-02-28T07:37:44.355Z,52.77
2023-02-28T07:40:12.076Z,52.79
2023-02-28T07:42:42.929Z,52.84
2023-02-28T07:45:12.022Z,52.68
2023-02-28T07:47:39.418Z,52.82
2023-02-28T07:50:08.059Z,53.07
2023-02-28T07:52:34.950Z,52.66
2023-02-28T07:55:01.990Z,52.55
2023-02-28T07:57:29.042Z,52.14
2023-02-28T07:59:56.492Z,52.03
2023-02-28T08:02:23.548Z,52.13
2023-02-28T08:04:51.736Z,52.07
2023-02-28T08:07:38.374Z,51.70
2023-02-28T08:10:06.197Z,51.72
2023-02-28T08:12:33.138Z,51.78
2023-02-28T08:14:59.878Z,51.73
2023-02-28T08:17:26.928Z,51.63
2023-02-28T08:19:54.079Z,51.57
2023-02-28T08:22:21.532Z,51.53
2023-02-28T08:24:49.809Z,51.67
2023-02-28T08:27:17.879Z,51.52
2023-02-28T08:29:46.360Z,51.39
2023-02-28T08:32:27.491Z,51.35
2023-02-28T08:34:56.021Z,51.54
2023-02-28T08:37:23.077Z,51.35
2023-02-28T08:39:50.315Z,50.98
2023-02-28T08:42:17.545Z,50.94
2023-02-28T08:44:44.168Z,50.96
2023-02-28T08:47:11.182Z,51.14
2023-02-28T08:49:37.996Z,50.74
2023-02-28T08:52:05.159Z,50.78
2023-02-28T08:54:33.837Z,50.72
2023-02-28T08:57:00.777Z,50.62
2023-02-28T08:59:28.258Z,50.57
2023-02-28T09:01:55.794Z,50.29
2023-02-28T09:04:25.129Z,50.34
2023-02-28T09:06:52.450Z,50.58
2023-02-28T09:09:20.426Z,50.64
2023-02-28T09:11:47.471Z,50.57
2023-02-28T09:14:14.721Z,50.56
2023-02-28T09:16:42.089Z,50.62
2023-02-28T09:19:12.100Z,50.17
2023-02-28T09:21:39.656Z,49.24
2023-02-28T09:24:07.011Z,49.16
2023-02-28T09:26:39.116Z,49.10
2023-02-28T09:29:17.196Z,49.46
2023-02-28T09:31:44.186Z,49.73
2023-02-28T09:34:11.292Z,49.51
2023-02-28T09:36:45.136Z,49.36
2023-02-28T09:39:15.000Z,49.34
2023-02-28T09:41:50.880Z,49.30
2023-02-28T09:44:21.242Z,49.05
2023-02-28T09:46:50.791Z,49.02
2023-02-28T09:49:19.782Z,48.36
2023-02-28T09:51:51.850Z,48.47
2023-02-28T09:54:22.593Z,48.24
2023-02-28T09:57:07.766Z,47.98
2023-02-28T09:59:53.166Z,48.27
2023-02-28T10:02:32.273Z,48.29
2023-02-28T10:05:10.799Z,47.67
2023-02-28T10:07:59.549Z,47.72
2023-02-28T10:10:43.095Z,48.08
2023-02-28T10:13:18.004Z,48.43
2023-02-28T10:15:45.669Z,48.69
2023-02-28T10:18:15.904Z,47.89
2023-02-28T10:20:42.632Z,47.56
2023-02-28T10:23:20.958Z,47.65
2023-02-28T10:26:05.529Z,47.81
2023-02-28T10:28:32.879Z,47.52
2023-02-28T10:31:00.176Z,47.70
2023-02-28T10:33:34.625Z,47.89
2023-02-28T10:36:02.354Z,47.76
2023-02-28T10:38:36.618Z,47.61
2023-02-28T10:41:05.197Z,47.52
2023-02-28T10:43:32.555Z,47.51
2023-02-28T10:46:15.230Z,47.40
2023-02-28T10:48:48.405Z,47.04
2023-02-28T10:51:16.755Z,46.98
2023-02-28T10:53:59.501Z,46.55
2023-02-28T10:56:27.744Z,46.27
2023-02-28T10:59:03.085Z,46.19
2023-02-28T11:01:32.927Z,45.92
2023-02-28T11:04:00.202Z,46.26
2023-02-28T11:06:30.303Z,46.25
2023-02-28T11:09:03.230Z,46.01
2023-02-28T11:11:32.294Z,45.80
2023-02-28T11:14:05.232Z,45.89
2023-02-28T11:16:34.008Z,45.71
2023-02-28T11:19:07.302Z,45.55
2023-02-28T11:21:35.313Z,45.73
2023-02-28T11:24:24.858Z,45.39
2023-02-28T11:26:51.745Z,45.49
2023-02-28T11:29:22.794Z,45.58
2023-02-28T11:32:18.954Z,45.22
2023-02-28T11:34:46.539Z,44.90
2023-02-28T11:37:18.614Z,44.96
2023-02-28T11:39:45.942Z,45.06
2023-02-28T11:42:15.859Z,45.09
2023-02-28T11:44:51.798Z,44.85
2023-02-28T11:47:27.431Z,44.97
2023-02-28T11:50:16.055Z,43.80
2023-02-28T11:52:46.284Z,43.61
2023-02-28T11:55:26.834Z,43.58
2023-02-28T11:58:17.409Z,43.68
2023-02-28T12:01:07.751Z,43.80
2023-02-28T12:03:44.397Z,43.56
2023-02-28T12:06:30.169Z,43.21
2023-02-28T12:08:57.113Z,42.88
2023-02-28T12:12:00.826Z,43.36
2023-02-28T12:14:41.518Z,43.30
2023-02-28T12:17:41.413Z,42.99
2023-02-28T12:20:37.540Z,42.41
2023-02-28T12:23:19.791Z,42.44
2023-02-28T12:26:11.985Z,42.64
2023-02-28T12:28:51.009Z,42.33
2023-02-28T12:31:29.630Z,42.14
2023-02-28T12:34:04.465Z,42.31
2023-02-28T12:36:31.588Z,42.33
2023-02-28T12:39:04.393Z,42.05
2023-02-28T12:41:39.952Z,42.28
2023-02-28T12:44:22.754Z,42.24
2023-02-28T12:46:51.557Z,41.71
2023-02-28T12:49:25.044Z,41.65
2023-02-28T12:51:52.604Z,41.97
2023-02-28T12:54:44.886Z,41.55
2023-02-28T12:57:36.166Z,41.23
2023-02-28T13:00:12.756Z,41.16
2023-02-28T13:02:48.890Z,40.92
2023-02-28T13:05:18.702Z,40.66
2023-02-28T13:08:00.002Z,40.03
2023-02-28T13:10:39.012Z,39.83
2023-02-28T13:13:06.217Z,38.16
2023-02-28T13:15:38.533Z,36.41
2023-02-28T13:18:05.269Z,34.31
2023-02-28T13:20:36.623Z,32.90
2023-02-28T13:23:05.672Z,31.21
2023-02-28T13:25:42.294Z,29.96
2023-02-28T13:28:10.774Z,28.70
2023-02-28T13:30:53.125Z,27.07
2023-02-28T13:33:20.031Z,26.36
2023-02-28T13:35:46.920Z,26.42
2023-02-28T13:38:17.705Z,26.71
2023-02-28T13:40:44.761Z,26.13
2023-02-28T13:43:11.802Z,25.33
2023-02-28T13:45:40.181Z,24.64
2023-02-28T13:48:19.144Z,24.81
2023-02-28T13:50:46.012Z,24.30
2023-02-28T13:53:13.080Z,23.59
2023-02-28T13:56:04.865Z,22.75
2023-02-28T13:58:54.924Z,22.67
2023-02-28T14:01:57.897Z,22.52
2023-02-28T14:04:40.601Z,23.09
2023-02-28T14:07:09.838Z,22.97
2023-02-28T14:09:41.696Z,22.77
2023-02-28T14:12:46.519Z,22.86
2023-02-28T14:15:34.729Z,23.10
2023-02-28T14:18:11.743Z,23.20
2023-02-28T14:20:40.008Z,22.92
2023-02-28T14:23:48.908Z,22.67
2023-02-28T14:26:36.785Z,23.57
2023-02-28T14:29:41.822Z,23.92
2023-02-28T14:32:33.313Z,23.35
2023-02-28T14:35:06.229Z,23.56
2023-02-28T14:37:34.607Z,23.04
2023-02-28T14:40:01.766Z,23.13
2023-02-28T14:42:33.935Z,23.58
2023-02-28T14:45:01.387Z,24.28
2023-02-28T14:47:32.492Z,24.75
2023-02-28T14:50:04.159Z,25.26
2023-02-28T14:52:32.906Z,25.54
2023-02-28T14:55:01.459Z,26.12
2023-02-28T14:57:34.450Z,27.16
2023-02-28T15:00:10.911Z,28.52
2023-02-28T15:02:38.276Z,29.93
2023-02-28T15:05:17.564Z,31.20
2023-02-28T15:07:45.795Z,32.28
2023-02-28T15:10:23.982Z,33.19
2023-02-28T15:12:58.616Z,33.95
2023-02-28T15:15:36.083Z,34.80
2023-02-28T15:18:14.266Z,35.35
2023-02-28T15:20:41.784Z,36.11
2023-02-28T15:23:08.712Z,36.61
2023-02-28T15:25:41.400Z,37.25
2023-02-28T15:28:14.612Z,37.97
2023-02-28T15:30:59.947Z,38.53
2023-02-28T15:33:28.341Z,38.95
2023-02-28T15:36:17.788Z,39.31
2023-02-28T15:38:44.756Z,39.82
2023-02-28T15:41:22.859Z,40.54
2023-02-28T15:44:18.797Z,40.89
2023-02-28T15:46:55.879Z,41.54
2023-02-28T15:49:23.477Z,42.01
2023-02-28T15:51:51.236Z,42.30
2023-02-28T15:54:27.803Z,42.67
2023-02-28T15:56:57.520Z,42.83
2023-02-28T15:59:29.146Z,43.14
2023-02-28T16:02:04.901Z,43.58
2023-02-28T16:04:33.619Z,43.78
2023-02-28T16:07:01.854Z,44.01
2023-02-28T16:09:34.214Z,44.09
2023-02-28T16:12:02.411Z,44.39
2023-02-28T16:14:32.842Z,44.41
2023-02-28T16:17:05.620Z,44.82
2023-02-28T16:19:33.897Z,44.90
2023-02-28T16:22:06.112Z,45.11
2023-02-28T16:24:34.129Z,45.28
2023-02-28T16:27:00.957Z,45.38
2023-02-28T16:29:34.068Z,45.59
2023-02-28T16:32:01.174Z,45.76
2023-02-28T16:34:28.415Z,45.74
2023-02-28T16:36:55.212Z,45.93
2023-02-28T16:39:22.463Z,46.11
2023-02-28T16:41:49.713Z,46.22
2023-02-28T16:44:36.579Z,46.33
2023-02-28T16:47:04.186Z,46.47
2023-02-28T16:49:31.142Z,46.56
2023-02-28T16:51:58.705Z,46.90
2023-02-28T16:54:25.751Z,47.18
2023-02-28T16:56:52.476Z,47.39
2023-02-28T16:59:22.953Z,47.62
2023-02-28T17:01:52.131Z,47.85
2023-02-28T17:04:18.949Z,47.91
2023-02-28T17:06:48.215Z,48.09
2023-02-28T17:22:33.315Z,48.36
2023-02-28T17:25:00.255Z,48.07
2023-02-28T17:27:27.023Z,48.42
2023-02-28T17:29:53.844Z,48.69
2023-02-28T17:32:20.837Z,49.05
2023-02-28T17:34:47.692Z,49.52
2023-02-28T17:37:16.852Z,49.80
2023-02-28T17:39:44.496Z,50.15
2023-02-28T17:42:16.564Z,50.32
2023-02-28T17:44:43.610Z,50.58
2023-02-28T17:47:11.272Z,50.89
2023-02-28T17:49:38.317Z,51.15
2023-02-28T17:52:05.165Z,51.30
2023-02-28T17:54:36.411Z,51.57
2023-02-28T17:57:03.151Z,51.89
2023-02-28T17:59:33.780Z,52.26
2023-02-28T18:02:01.311Z,52.44
2023-02-28T18:04:28.205Z,52.35
2023-02-28T18:06:56.333Z,52.34
2023-02-28T18:09:23.207Z,52.34
2023-02-28T18:11:50.996Z,52.53
2023-02-28T18:14:18.936Z,52.84
2023-02-28T18:16:49.771Z,53.03
2023-02-28T18:19:17.681Z,53.14
2023-02-28T18:21:46.416Z,53.43
2023-02-28T18:24:16.138Z,53.55
2023-02-28T18:26:44.020Z,53.77
2023-02-28T18:29:21.704Z,53.95
2023-02-28T18:31:48.749Z,54.08
2023-02-28T18:34:15.711Z,54.09
2023-02-28T18:36:46.537Z,54.29
2023-02-28T18:39:14.248Z,54.32
2023-02-28T18:41:41.653Z,54.38
2023-02-28T18:44:19.001Z,54.52
2023-02-28T18:46:50.496Z,54.43
2023-02-28T18:49:18.278Z,54.51
2023-02-28T18:51:46.020Z,54.66
2023-02-28T18:54:13.375Z,54.51
2023-02-28T18:56:40.280Z,54.67
2023-02-28T18:59:07.029Z,54.67
2023-02-28T19:01:33.991Z,54.57
2023-02-28T19:04:01.384Z,54.55
2023-02-28T19:06:29.008Z,54.66
2023-02-28T19:08:59.453Z,54.76
2023-02-28T19:11:26.502Z,54.80
2023-02-28T19:13:54.096Z,54.95
2023-02-28T19:16:22.297Z,55.07
2023-02-28T19:18:49.299Z,55.09
2023-02-28T19:21:18.824Z,55.10
2023-02-28T19:23:46.141Z,55.12
2023-02-28T19:26:20.130Z,55.15
2023-02-28T19:28:47.028Z,55.10
2023-02-28T19:31:15.454Z,55.17
2023-02-28T19:33:43.252Z,55.22
2023-02-28T19:36:13.061Z,55.23
2023-02-28T19:38:41.341Z,55.22
2023-02-28T19:41:10.019Z,55.32
2023-02-28T19:43:37.077Z,55.38
2023-02-28T19:46:08.883Z,55.36
2023-02-28T19:48:36.203Z,55.45
2023-02-28T19:51:08.646Z,55.35
2023-02-28T19:53:36.335Z,55.44
2023-02-28T19:56:03.992Z,55.72
2023-02-28T19:58:31.437Z,55.83
2023-02-28T20:01:00.659Z,55.83
2023-02-28T20:03:27.636Z,55.75
2023-02-28T20:06:00.676Z,55.42
2023-02-28T20:08:28.438Z,55.24
2023-02-28T20:10:55.283Z,55.17
2023-02-28T20:13:28.033Z,55.14
2023-02-28T20:15:55.517Z,55.16
2023-02-28T20:18:22.356Z,55.13
2023-02-28T20:20:49.718Z,55.04
2023-02-28T20:23:18.096Z,54.94
2023-02-28T20:25:44.896Z,55.03
2023-02-28T20:28:11.582Z,55.10
2023-02-28T20:30:39.062Z,55.11
2023-02-28T20:33:06.341Z,55.21
2023-02-28T20:35:36.546Z,55.51
2023-02-28T20:38:03.465Z,55.79
2023-02-28T20:40:31.431Z,55.85
2023-02-28T20:43:02.983Z,56.15
2023-02-28T20:45:34.022Z,56.32
2023-02-28T20:48:00.970Z,56.47
2023-02-28T20:50:27.817Z,56.39
2023-02-28T20:52:55.502Z,56.45
2023-02-28T20:55:22.526Z,56.51
2023-02-28T20:57:50.253Z,56.61
2023-02-28T21:00:19.947Z,56.52
2023-02-28T21:02:47.484Z,56.35
2023-02-28T21:05:14.435Z,56.17
2023-02-28T21:07:41.479Z,56.03
2023-02-28T21:10:10.090Z,55.85
2023-02-28T21:12:36.981Z,55.95
2023-02-28T21:15:04.030Z,55.98
2023-02-28T21:17:32.513Z,56.18
2023-02-28T21:19:59.225Z,56.20
2023-02-28T21:22:28.484Z,56.40
2023-02-28T21:24:55.704Z,56.45
2023-02-28T21:27:22.961Z,56.56
2023-02-28T21:29:50.011Z,56.59
2023-02-28T21:32:17.182Z,56.83
2023-02-28T21:34:50.245Z,57.07
2023-02-28T21:37:17.144Z,57.36
2023-02-28T21:39:44.653Z,57.58
2023-02-28T21:42:12.452Z,57.74
2023-02-28T21:44:39.628Z,57.87
2023-02-28T21:47:06.511Z,57.72
2023-02-28T21:49:34.272Z,57.79
2023-02-28T21:52:01.258Z,57.91
2023-02-28T21:54:28.384Z,57.95
2023-02-28T21:56:55.413Z,57.91
2023-02-28T21:59:23.281Z,57.82
2023-02-28T22:01:51.099Z,57.86
2023-02-28T22:04:20.700Z,57.87
2023-02-28T22:06:52.108Z,57.90
2023-02-28T22:09:18.947Z,57.84
2023-02-28T22:11:45.900Z,58.00
2023-02-28T22:14:14.172Z,57.96
2023-02-28T22:16:54.462Z,57.99
2023-02-28T22:19:22.613Z,57.91
2023-02-28T22:21:49.750Z,57.85
2023-02-28T22:24:19.953Z,57.68
2023-02-28T22:26:48.528Z,57.53
2023-02-28T22:29:15.399Z,57.49
2023-02-28T22:31:42.134Z,57.40
2023-02-28T22:34:12.448Z,57.38
2023-02-28T22:36:40.951Z,57.49
2023-02-28T22:39:08.055Z,57.49
2023-02-28T22:41:34.836Z,57.50
2023-02-28T22:44:04.482Z,57.54
2023-02-28T22:46:32.754Z,57.66
2023-02-28T22:49:01.209Z,57.78
2023-02-28T22:51:28.247Z,57.85
2023-02-28T22:53:55.524Z,57.91
2023-02-28T22:56:26.143Z,57.96
2023-02-28T22:58:54.917Z,58.04
2023-02-28T23:01:22.930Z,57.99
2023-02-28T23:03:50.269Z,58.01
2023-02-28T23:06:24.462Z,58.14
2023-02-28T23:08:53.059Z,58.17
2023-02-28T23:11:36.321Z,58.37
2023-02-28T23:14:04.066Z,58.37
2023-02-28T23:16:39.774Z,58.57
2023-02-28T23:19:17.698Z,58.61
2023-02-28T23:21:44.873Z,58.58
2023-02-28T23:24:12.586Z,58.67
2023-02-28T23:26:43.242Z,58.60
2023-02-28T23:29:11.417Z,58.76
2023-02-28T23:31:39.676Z,58.93
2023-02-28T23:34:07.624Z,58.98
2023-02-28T23:36:34.604Z,59.16
2023-02-28T23:39:01.451Z,59.34
2023-02-28T23:41:28.598Z,59.52
2023-02-28T23:43:55.645Z,59.67
2023-02-28T23:46:22.412Z,59.89
2023-02-28T23:48:49.761Z,60.03
2023-02-28T23:51:18.631Z,60.17
2023-02-28T23:53:47.168Z,60.15
2023-02-28T23:56:16.316Z,60.47
2023-02-28T23:58:47.688Z,60.53
